Time;durP1;ratioP1;P1;durP2;ratioP2;P2;SDS_P1;SDS_P2;PMS_P1;PMS_P2;Temp;Humidity;BMP_temperature;BMP_pressure;BME280_temperature;BME280_humidity;BME280_pressure;Samples;Min_cycle;Max_cycle;Signal;HPM_P1;HPM_P2
2023/01/05 00:01:07;;;;;;;31.25;4.90;;;;;;;10.25;100.00;101802.03;5217907;28;20438;-77
2023/01/05 00:03:38;;;;;;;41.30;5.45;;;;;;;10.28;100.00;101799.06;5225415;28;20104;-77
2023/01/05 00:06:13;;;;;;;40.17;7.50;;;;;;;10.28;100.00;101807.09;5212336;28;20112;-77
2023/01/05 00:08:45;;;;;;;42.47;7.25;;;;;;;10.27;100.00;101797.38;5212952;28;20485;-77
2023/01/05 00:22:54;;;;;;;47.42;7.80;;;;;;;10.34;100.00;101814.59;5224129;28;20021;-77
2023/01/05 00:25:28;;;;;;;45.58;7.32;;;;;;;10.36;100.00;101816.16;5220344;28;20454;-77
2023/01/05 00:27:59;;;;;;;33.15;7.22;;;;;;;10.39;100.00;101806.97;5218977;28;20036;-77
2023/01/05 00:30:33;;;;;;;38.92;7.30;;;;;;;10.41;100.00;101818.41;5218283;28;20029;-77
2023/01/05 00:33:07;;;;;;;44.95;9.30;;;;;;;10.45;100.00;101824.34;5205155;28;20029;-78
2023/01/05 00:35:38;;;;;;;45.22;7.28;;;;;;;10.43;100.00;101832.50;5208636;28;20049;-77
2023/01/05 00:38:09;;;;;;;44.28;7.53;;;;;;;10.41;100.00;101836.34;5225579;28;20032;-77
2023/01/05 00:40:40;;;;;;;47.50;7.35;;;;;;;10.47;100.00;101833.09;5217388;28;20018;-77
2023/01/05 00:43:10;;;;;;;33.60;6.30;;;;;;;10.43;100.00;101829.84;5204971;28;20025;-78
2023/01/05 00:45:40;;;;;;;47.22;6.50;;;;;;;10.41;100.00;101826.47;5217267;28;20440;-78
2023/01/05 00:48:11;;;;;;;44.97;7.60;;;;;;;10.39;100.00;101825.72;5218105;28;20490;-78
2023/01/05 00:50:41;;;;;;;38.40;6.78;;;;;;;10.42;100.00;101820.09;5204067;28;20498;-77
2023/01/05 00:53:12;;;;;;;38.63;5.63;;;;;;;10.40;100.00;101824.78;5205186;28;20037;-78
2023/01/05 00:55:42;;;;;;;41.72;6.63;;;;;;;10.38;100.00;101826.72;5214104;28;20063;-77
2023/01/05 00:58:13;;;;;;;46.10;7.03;;;;;;;10.49;100.00;101825.72;5209160;28;20069;-77
2023/01/05 01:00:43;;;;;;;42.63;7.55;;;;;;;10.49;100.00;101817.69;5214454;28;20024;-77
2023/01/05 01:03:14;;;;;;;33.33;6.90;;;;;;;10.45;100.00;101825.19;5221159;28;20033;-78
2023/01/05 01:05:44;;;;;;;40.90;5.78;;;;;;;10.43;100.00;101820.94;5204848;28;20022;-77
2023/01/05 01:08:15;;;;;;;41.15;6.18;;;;;;;10.41;100.00;101823.78;5217879;28;20482;-78
2023/01/05 01:10:45;;;;;;;41.40;6.40;;;;;;;10.40;100.00;101832.81;5215354;28;20021;-78
2023/01/05 01:13:16;;;;;;;53.22;7.00;;;;;;;10.39;100.00;101844.50;5211248;28;20017;-77
2023/01/05 01:15:46;;;;;;;38.97;5.35;;;;;;;10.38;100.00;101832.09;5217873;28;20485;-76
2023/01/05 01:18:17;;;;;;;41.92;6.47;;;;;;;10.37;100.00;101841.97;5204454;28;20021;-77
2023/01/05 01:20:47;;;;;;;40.95;5.95;;;;;;;10.32;100.00;101828.13;5204722;28;20014;-78
2023/01/05 01:23:18;;;;;;;37.53;5.75;;;;;;;10.42;100.00;101838.03;5216411;28;20502;-77
2023/01/05 01:25:48;;;;;;;33.70;5.78;;;;;;;10.44;100.00;101842.28;5205993;28;20116;-77
2023/01/05 01:28:19;;;;;;;36.72;4.97;;;;;;;10.46;100.00;101851.03;5224796;28;20111;-78
2023/01/05 01:30:49;;;;;;;48.78;6.22;;;;;;;10.44;100.00;101850.34;5221235;28;20021;-77
2023/01/05 01:33:20;;;;;;;52.03;5.75;;;;;;;10.39;100.00;101852.56;5210089;28;21055;-78
2023/01/05 01:35:50;;;;;;;37.35;6.60;;;;;;;10.37;100.00;101854.53;5221522;28;21045;-77
2023/01/05 01:38:21;;;;;;;34.65;5.57;;;;;;;10.35;100.00;101860.06;5223923;28;20712;-77
2023/01/05 01:40:51;;;;;;;38.13;5.82;;;;;;;10.30;100.00;101864.16;5216170;28;20025;-77
2023/01/05 01:43:52;;;;;;;38.80;5.07;;;;;;;10.34;100.00;101877.16;5204006;28;20030;-78
2023/01/05 01:46:24;;;;;;;30.08;4.63;;;;;;;10.32;100.00;101871.06;5216413;28;20033;-78
2023/01/05 01:49:03;;;;;;;39.20;5.70;;;;;;;10.26;100.00;101874.31;5217888;28;20037;-77
2023/01/05 01:51:44;;;;;;;32.10;4.82;;;;;;;10.24;100.00;101875.41;5202314;28;20379;-78
2023/01/05 01:54:17;;;;;;;42.22;4.55;;;;;;;10.22;100.00;101867.47;5213950;28;20028;-77
2023/01/05 01:56:53;;;;;;;46.70;5.97;;;;;;;10.20;100.00;101872.16;5205756;28;20025;-77
2023/01/05 01:59:25;;;;;;;35.03;6.10;;;;;;;10.15;100.00;101873.56;5214572;28;20107;-78
2023/01/05 02:02:00;;;;;;;38.60;5.93;;;;;;;10.12;100.00;101882.72;5224162;28;20035;-75
2023/01/05 02:04:31;;;;;;;48.65;5.30;;;;;;;10.11;100.00;101881.88;5210552;28;20091;-75
2023/01/05 02:07:03;;;;;;;36.50;4.95;;;;;;;10.10;100.00;101874.81;5217391;28;20406;-75
2023/01/05 02:09:34;;;;;;;40.45;4.30;;;;;;;10.12;100.00;101882.72;5204942;28;20041;-74
2023/01/05 02:12:14;;;;;;;33.58;5.47;;;;;;;10.16;100.00;101892.19;5215145;28;20022;-75
2023/01/05 02:15:27;;;;;;;34.85;4.85;;;;;;;10.18;100.00;101884.00;5216732;28;20028;-78
2023/01/05 02:18:06;;;;;;;28.48;4.32;;;;;;;10.18;100.00;101879.47;5202170;28;20498;-76
2023/01/05 02:20:55;;;;;;;29.48;5.07;;;;;;;10.25;100.00;101882.50;5215351;28;20029;-76
2023/01/05 02:23:46;;;;;;;37.17;6.50;;;;;;;10.27;100.00;101885.88;5202961;28;20061;-76
2023/01/05 02:26:47;;;;;;;32.97;5.70;;;;;;;10.33;100.00;101886.16;5203758;28;20059;-76
2023/01/05 02:29:33;;;;;;;27.75;4.35;;;;;;;10.44;100.00;101887.88;5217296;28;20503;-76
2023/01/05 02:32:10;;;;;;;41.53;6.20;;;;;;;10.42;100.00;101881.78;5215766;28;20481;-76
2023/01/05 02:34:58;;;;;;;36.88;5.20;;;;;;;10.42;100.00;101880.94;5204709;28;20541;-76
2023/01/05 02:37:42;;;;;;;31.98;4.90;;;;;;;10.40;100.00;101881.09;5210920;28;20094;-76
2023/01/05 02:40:35;;;;;;;39.38;4.82;;;;;;;10.43;100.00;101880.81;5222070;28;20028;-76
2023/01/05 02:43:08;;;;;;;39.08;4.82;;;;;;;10.47;100.00;101886.75;5203797;28;20028;-76
2023/01/05 02:45:39;;;;;;;46.00;5.60;;;;;;;10.47;100.00;101884.91;5209500;28;20052;-76
2023/01/05 02:48:09;;;;;;;43.30;7.00;;;;;;;10.44;100.00;101881.66;5224608;28;20056;-77
2023/01/05 02:50:59;;;;;;;31.10;5.18;;;;;;;10.41;100.00;101880.13;5226776;28;20044;-76
2023/01/05 02:53:34;;;;;;;43.70;5.22;;;;;;;10.58;100.00;101884.75;5227654;28;20082;-76
2023/01/05 02:56:19;;;;;;;39.97;5.50;;;;;;;10.58;100.00;101882.06;5217128;28;20496;-76
2023/01/05 02:59:14;;;;;;;40.03;5.45;;;;;;;10.61;100.00;101883.66;5214652;28;20051;-76
2023/01/05 03:01:51;;;;;;;35.00;5.65;;;;;;;10.64;100.00;101886.03;5209123;28;20067;-76
2023/01/05 03:04:31;;;;;;;33.83;5.50;;;;;;;10.63;100.00;101890.56;5220234;28;20027;-76
2023/01/05 03:07:11;;;;;;;39.42;6.38;;;;;;;10.61;100.00;101887.19;5227823;28;20024;-76
2023/01/05 03:09:43;;;;;;;32.90;5.03;;;;;;;10.67;100.00;101890.28;5213936;28;20040;-75
2023/01/05 03:15:27;;;;;;;37.17;5.15;;;;;;;10.68;100.00;101900.88;5208471;28;20029;-76
2023/01/05 03:18:07;;;;;;;36.85;4.93;;;;;;;10.70;100.00;101900.75;5221703;28;20098;-76
2023/01/05 03:20:42;;;;;;;53.38;5.47;;;;;;;10.64;100.00;101894.09;5204841;28;20021;-75
2023/01/05 03:37:42;;;;;;;50.58;6.78;;;;;;;10.66;100.00;101888.59;5213837;28;20072;-75
2023/01/05 03:40:19;;;;;;;36.30;5.38;;;;;;;10.66;100.00;101881.38;5224297;28;20031;-76
2023/01/05 03:42:50;;;;;;;38.63;5.65;;;;;;;10.67;100.00;101883.06;5216003;28;20036;-76
2023/01/05 03:45:22;;;;;;;44.47;5.57;;;;;;;10.70;100.00;101895.38;5222982;28;20025;-76
2023/01/05 03:47:54;;;;;;;36.80;5.80;;;;;;;10.67;100.00;101884.91;5206307;28;20029;-76
2023/01/05 03:50:25;;;;;;;50.22;6.60;;;;;;;10.63;100.00;101890.56;5218956;28;20033;-76
2023/01/05 03:52:55;;;;;;;35.88;5.43;;;;;;;10.64;100.00;101891.41;5218322;28;20028;-76
2023/01/05 03:55:26;;;;;;;40.03;5.57;;;;;;;10.64;100.00;101891.41;5206371;28;20104;-76
2023/01/05 03:57:56;;;;;;;38.42;5.38;;;;;;;10.63;100.00;101903.97;5205820;28;20021;-76
2023/01/05 04:00:27;;;;;;;33.72;4.85;;;;;;;10.61;100.00;101907.81;5218825;28;20172;-76
2023/01/05 04:02:57;;;;;;;39.40;4.40;;;;;;;10.61;100.00;101907.81;5218584;28;20032;-76
2023/01/05 04:05:28;;;;;;;35.03;5.90;;;;;;;10.57;100.00;101912.59;5214041;28;20025;-76
2023/01/05 04:07:58;;;;;;;32.47;4.75;;;;;;;10.56;100.00;101916.28;5209484;28;20071;-76
2023/01/05 04:10:29;;;;;;;44.63;6.03;;;;;;;10.53;100.00;101904.97;5204362;28;20029;-76
2023/01/05 04:12:59;;;;;;;34.80;5.40;;;;;;;10.57;100.00;101914.44;5205779;28;20040;-76
2023/01/05 04:15:30;;;;;;;45.25;6.75;;;;;;;10.55;100.00;101919.94;5210764;28;20025;-76
2023/01/05 04:18:00;;;;;;;43.50;6.13;;;;;;;10.56;100.00;101921.63;5226713;28;20104;-76
2023/01/05 04:20:31;;;;;;;39.50;5.82;;;;;;;10.58;100.00;101913.44;5213401;28;20025;-76
2023/01/05 04:23:01;;;;;;;39.60;6.03;;;;;;;10.63;100.00;101919.22;5218663;28;20029;-76
2023/01/05 04:25:32;;;;;;;46.95;4.95;;;;;;;10.60;100.00;101925.75;5220102;28;20021;-76
2023/01/05 04:28:02;;;;;;;49.92;6.40;;;;;;;10.62;100.00;101915.69;5226722;28;20029;-76
2023/01/05 04:30:33;;;;;;;39.08;6.43;;;;;;;10.63;100.00;101928.13;5210448;28;20033;-75
2023/01/05 04:33:03;;;;;;;41.65;5.57;;;;;;;10.63;100.00;101929.97;5214567;28;20021;-76
2023/01/05 04:35:34;;;;;;;34.00;5.72;;;;;;;10.63;100.00;101932.66;5209068;28;20060;-75
2023/01/05 04:38:04;;;;;;;35.67;5.28;;;;;;;10.61;100.00;101926.59;5206009;28;20033;-76
2023/01/05 04:40:35;;;;;;;34.17;5.65;;;;;;;10.55;100.00;101919.09;5210752;28;20018;-74
2023/01/05 04:43:05;;;;;;;42.92;5.30;;;;;;;10.54;100.00;101920.94;5217251;28;20119;-75
2023/01/05 04:45:36;;;;;;;50.03;7.40;;;;;;;10.49;100.00;101925.88;5206630;28;20397;-75
2023/01/05 04:48:06;;;;;;;30.17;4.80;;;;;;;10.52;100.00;101928.25;5203881;28;20406;-76
2023/01/05 04:50:37;;;;;;;38.40;5.28;;;;;;;10.48;100.00;101928.69;5210080;28;20434;-75
2023/01/05 04:53:07;;;;;;;39.70;6.88;;;;;;;10.44;100.00;101922.75;5224434;28;20032;-75
2023/01/05 04:55:38;;;;;;;37.28;4.80;;;;;;;10.49;100.00;101923.19;5217669;28;20040;-76
2023/01/05 04:58:08;;;;;;;38.85;4.95;;;;;;;10.52;100.00;101924.75;5207675;28;20026;-76
2023/01/05 05:00:39;;;;;;;45.30;5.78;;;;;;;10.48;100.00;101915.25;5225002;28;20429;-76
2023/01/05 05:03:09;;;;;;;36.90;4.88;;;;;;;10.48;100.00;101924.16;5210859;28;20029;-76
2023/01/05 05:05:39;;;;;;;39.40;6.07;;;;;;;10.48;100.00;101913.44;5225611;28;20100;-76
2023/01/05 05:08:10;;;;;;;43.28;5.72;;;;;;;10.52;100.00;101917.53;5225589;28;20049;-76
2023/01/05 05:10:40;;;;;;;36.90;5.70;;;;;;;10.53;100.00;101918.38;5211826;28;20022;-76
2023/01/05 05:13:11;;;;;;;41.78;5.03;;;;;;;10.51;100.00;101929.25;5208256;28;20563;-76
2023/01/05 05:15:44;;;;;;;49.00;6.10;;;;;;;10.49;100.00;101917.84;5218190;28;20035;-76
2023/01/05 05:18:14;;;;;;;39.33;6.07;;;;;;;10.50;100.00;101927.56;5211555;28;20025;-75
2023/01/05 05:20:49;;;;;;;44.72;6.22;;;;;;;10.51;100.00;101929.25;5223101;28;20534;-75
2023/01/05 05:23:20;;;;;;;40.13;5.20;;;;;;;10.51;100.00;101933.78;5204751;28;20512;-75
2023/01/05 05:25:51;;;;;;;35.72;5.18;;;;;;;10.49;100.00;101930.38;5218044;28;20477;-75
2023/01/05 05:28:26;;;;;;;33.58;4.82;;;;;;;10.52;100.00;101947.03;5204557;28;20033;-76
2023/01/05 05:30:57;;;;;;;33.05;7.80;;;;;;;10.51;100.00;101950.72;5209177;28;20021;-75
2023/01/05 05:33:28;;;;;;;37.10;5.97;;;;;;;10.53;100.00;101948.72;5219801;28;20500;-76
2023/01/05 05:35:58;;;;;;;33.97;4.85;;;;;;;10.49;100.00;101943.78;5210496;28;20033;-76
2023/01/05 05:38:28;;;;;;;39.78;4.80;;;;;;;10.47;100.00;101946.63;5223461;28;20100;-76
2023/01/05 05:40:59;;;;;;;40.53;6.32;;;;;;;10.47;100.00;101953.81;5215966;28;20062;-76
2023/01/05 05:43:29;;;;;;;47.92;5.88;;;;;;;10.45;100.00;101962.00;5205171;28;20049;-76
2023/01/05 05:46:00;;;;;;;44.17;5.47;;;;;;;10.47;100.00;101961.88;5214576;28;20025;-75
2023/01/05 05:48:30;;;;;;;34.28;5.32;;;;;;;10.40;100.00;101969.63;5205814;28;20047;-76
2023/01/05 05:51:01;;;;;;;30.38;6.43;;;;;;;10.38;100.00;101974.25;5214326;28;20088;-76
2023/01/05 05:53:31;;;;;;;37.65;6.13;;;;;;;10.36;100.00;101966.38;5206823;28;20056;-75
2023/01/05 05:56:02;;;;;;;39.10;7.25;;;;;;;10.40;100.00;101968.78;5214046;28;20029;-76
2023/01/05 05:58:32;;;;;;;66.15;19.10;;;;;;;10.38;100.00;101974.25;5217305;28;20029;-75
2023/01/05 06:01:03;;;;;;;89.85;27.55;;;;;;;10.44;100.00;101986.28;5215757;28;20056;-76
2023/01/05 06:03:33;;;;;;;96.82;30.88;;;;;;;10.45;100.00;101975.44;5218482;28;20025;-76
2023/01/05 06:06:04;;;;;;;62.13;17.38;;;;;;;10.44;100.00;101976.41;5216293;28;20708;-76
2023/01/05 06:08:35;;;;;;;50.03;10.60;;;;;;;10.47;100.00;101984.16;5210608;28;20115;-76
2023/01/05 06:11:06;;;;;;;49.10;12.57;;;;;;;10.46;100.00;101990.53;5208134;28;20029;-76
2023/01/05 06:13:37;;;;;;;45.88;7.70;;;;;;;10.43;100.00;101988.13;5211448;28;20060;-76
2023/01/05 06:16:07;;;;;;;68.47;16.23;;;;;;;10.50;100.00;101994.66;5217793;28;20067;-75
2023/01/05 06:18:38;;;;;;;110.07;34.63;;;;;;;10.49;100.00;101992.06;5223198;28;20024;-75
2023/01/05 06:21:08;;;;;;;118.05;41.30;;;;;;;10.44;100.00;101994.31;5223912;28;20028;-76
2023/01/05 06:23:38;;;;;;;60.58;13.88;;;;;;;10.40;100.00;101999.13;5226324;28;20079;-76
2023/01/05 06:26:09;;;;;;;54.13;13.27;;;;;;;10.43;100.00;102009.56;5223395;28;20108;-75
2023/01/05 06:28:39;;;;;;;61.33;18.90;;;;;;;10.43;100.00;101993.47;5219534;28;20056;-76
2023/01/05 06:31:10;;;;;;;43.95;10.32;;;;;;;10.44;100.00;102013.97;5213246;28;20052;-75
2023/01/05 06:33:41;;;;;;;45.40;12.65;;;;;;;10.39;100.00;102024.25;5222079;28;20033;-78
2023/01/05 06:36:11;;;;;;;56.22;12.02;;;;;;;10.36;100.00;102029.91;5209727;28;20026;-78
2023/01/05 06:38:42;;;;;;;55.03;9.60;;;;;;;10.36;100.00;102029.91;5224707;28;20059;-78
2023/01/05 06:41:12;;;;;;;74.43;17.85;;;;;;;10.36;100.00;102024.53;5218976;28;20228;-76
2023/01/05 06:43:42;;;;;;;57.47;17.85;;;;;;;10.31;100.00;102021.41;5207800;28;20393;-76
2023/01/05 06:46:13;;;;;;;56.03;18.85;;;;;;;10.37;100.00;102026.22;5218578;28;20737;-75
2023/01/05 06:48:43;;;;;;;56.25;9.55;;;;;;;10.40;100.00;102027.81;5213285;28;20063;-76
2023/01/05 06:51:14;;;;;;;55.05;9.77;;;;;;;10.36;100.00;102040.63;5215728;28;20025;-75
2023/01/05 06:53:44;;;;;;;57.20;15.73;;;;;;;10.33;100.00;102036.38;5227214;28;20037;-76
2023/01/05 06:56:15;;;;;;;48.88;8.13;;;;;;;10.29;100.00;102034.09;5228272;28;20040;-76
2023/01/05 06:58:45;;;;;;;54.00;10.02;;;;;;;10.26;100.00;102037.06;5219849;28;20013;-76
2023/01/05 07:01:16;;;;;;;46.30;8.40;;;;;;;10.20;100.00;102037.56;5206535;28;20524;-75
2023/01/05 07:03:46;;;;;;;74.47;14.60;;;;;;;10.16;100.00;102039.66;5207413;28;20049;-75
2023/01/05 07:06:17;;;;;;;51.92;10.88;;;;;;;10.20;100.00;102042.94;5209940;28;20064;-76
2023/01/05 07:08:47;;;;;;;50.90;8.05;;;;;;;10.28;100.00;102051.16;5218703;28;20041;-75
2023/01/05 07:11:18;;;;;;;52.03;9.48;;;;;;;10.29;100.00;102052.88;5211492;28;20039;-76
2023/01/05 07:13:49;;;;;;;42.83;7.40;;;;;;;10.26;100.00;102056.69;5228983;28;20021;-75
2023/01/05 07:16:19;;;;;;;47.30;8.73;;;;;;;10.25;100.00;102046.94;5221533;28;20028;-75
2023/01/05 07:18:50;;;;;;;47.35;7.70;;;;;;;10.30;100.00;102052.75;5228597;28;20039;-75
2023/01/05 07:21:20;;;;;;;51.28;10.02;;;;;;;10.29;100.00;102060.91;5207557;28;20093;-76
2023/01/05 07:23:51;;;;;;;60.63;7.50;;;;;;;10.25;100.00;102060.34;5207311;28;20075;-76
2023/01/05 07:26:21;;;;;;;71.55;17.67;;;;;;;10.25;100.00;102062.19;5205883;28;20049;-76
2023/01/05 07:28:52;;;;;;;56.78;13.13;;;;;;;10.22;100.00;102060.56;5219303;28;20028;-76
2023/01/05 07:31:22;;;;;;;40.55;6.80;;;;;;;10.24;100.00;102066.72;5215553;28;20662;-75
2023/01/05 07:33:53;;;;;;;59.95;8.10;;;;;;;10.25;100.00;102064.88;5219125;28;20504;-75
2023/01/05 07:36:24;;;;;;;46.85;6.85;;;;;;;10.28;100.00;102064.59;5226574;28;20556;-76
2023/01/05 07:38:54;;;;;;;39.63;7.13;;;;;;;10.29;100.00;102075.19;5213703;28;20036;-75
2023/01/05 07:41:25;;;;;;;50.30;6.15;;;;;;;10.25;100.00;102083.66;5226734;28;20025;-76
2023/01/05 07:43:55;;;;;;;43.92;7.97;;;;;;;10.26;100.00;102091.53;5222299;28;20079;-76
2023/01/05 07:46:26;;;;;;;51.17;6.28;;;;;;;10.32;100.00;102079.44;5217567;28;20032;-76
2023/01/05 07:48:57;;;;;;;50.20;7.57;;;;;;;10.26;100.00;102091.53;5220886;28;20048;-75
2023/01/05 07:51:27;;;;;;;46.03;7.78;;;;;;;10.25;100.00;102081.81;5218593;28;20083;-76
2023/01/05 07:53:57;;;;;;;46.95;6.18;;;;;;;10.26;100.00;102090.69;5212432;28;20430;-76
2023/01/05 07:56:28;;;;;;;36.70;5.82;;;;;;;10.23;100.00;102099.81;5213205;28;20486;-76
2023/01/05 07:58:58;;;;;;;34.55;5.30;;;;;;;10.26;100.00;102104.97;5219023;28;20532;-76
2023/01/05 08:01:29;;;;;;;44.78;7.30;;;;;;;10.24;100.00;102104.25;5221214;28;20382;-76
2023/01/05 08:03:59;;;;;;;49.53;6.10;;;;;;;10.24;100.00;102109.63;5225370;28;20032;-76
2023/01/05 08:06:30;;;;;;;45.20;6.70;;;;;;;10.23;100.00;102112.38;5213154;28;20109;-76
2023/01/05 08:10:27;;;;;;;55.85;7.57;;;;;;;10.21;100.00;102106.31;5226728;28;20024;-75
2023/01/05 08:11:51;;;;;;;38.42;7.20;;;;;;;10.23;100.00;102107.88;5205508;28;20121;-75
2023/01/05 08:14:21;;;;;;;40.13;6.90;;;;;;;10.23;100.00;102110.53;5217920;28;20124;-76
2023/01/05 08:16:52;;;;;;;46.63;6.10;;;;;;;10.24;100.00;102104.25;5217880;28;20060;-75
2023/01/05 08:19:22;;;;;;;55.85;7.50;;;;;;;10.22;100.00;102110.69;5210715;28;20017;-76
2023/01/05 08:21:53;;;;;;;52.88;7.32;;;;;;;10.22;100.00;102118.72;5203957;28;20013;-76
2023/01/05 08:24:23;;;;;;;48.65;6.32;;;;;;;10.25;100.00;102107.78;5204488;28;20036;-75
2023/01/05 08:26:54;;;;;;;47.60;7.13;;;;;;;10.26;100.00;102121.06;5204098;28;20132;-75
2023/01/05 08:29:24;;;;;;;57.38;6.70;;;;;;;10.24;100.00;102114.97;5223169;28;20090;-76
2023/01/05 08:31:55;;;;;;;130.88;44.45;;;;;;;10.29;100.00;102122.59;5214017;28;20502;-75
2023/01/05 08:34:25;;;;;;;56.00;10.70;;;;;;;10.32;100.00;102119.66;5224437;28;20021;-75
2023/01/05 08:36:55;;;;;;;41.45;7.85;;;;;;;10.30;100.00;102113.59;5225889;28;20113;-75
2023/01/05 08:39:26;;;;;;;42.42;7.32;;;;;;;10.33;100.00;102118.69;5218360;28;20029;-76
2023/01/05 08:41:56;;;;;;;47.25;7.50;;;;;;;10.35;100.00;102122.09;5221856;28;20048;-76
2023/01/05 08:44:27;;;;;;;40.50;8.13;;;;;;;10.39;100.00;102123.50;5215143;28;20096;-76
2023/01/05 08:46:57;;;;;;;39.40;7.32;;;;;;;10.38;100.00;102128.00;5220913;28;20049;-75
2023/01/05 08:49:28;;;;;;;43.42;7.03;;;;;;;10.38;100.00;102137.91;5205327;28;20071;-76
2023/01/05 08:51:58;;;;;;;52.17;7.57;;;;;;;10.44;100.00;102132.03;5209357;28;20033;-76
2023/01/05 08:54:28;;;;;;;46.67;12.20;;;;;;;10.43;100.00;102140.19;5212574;28;20025;-76
2023/01/05 08:56:59;;;;;;;50.05;9.63;;;;;;;10.47;100.00;102139.78;5205001;28;20053;-76
2023/01/05 08:59:30;;;;;;;39.25;6.30;;;;;;;10.51;100.00;102148.44;5217095;28;20033;-75
2023/01/05 09:02:00;;;;;;;37.25;6.18;;;;;;;10.46;100.00;102154.19;5217595;28;20021;-76
2023/01/05 09:04:31;;;;;;;45.85;8.10;;;;;;;10.49;100.00;102155.75;5206580;28;20035;-76
2023/01/05 09:07:01;;;;;;;51.17;7.32;;;;;;;10.50;100.00;102161.00;5224393;28;20056;-76
2023/01/05 09:09:32;;;;;;;44.25;6.88;;;;;;;10.49;100.00;102159.31;5211809;28;20033;-76
2023/01/05 09:12:02;;;;;;;47.80;7.00;;;;;;;10.55;100.00;102160.59;5223712;28;20067;-76
2023/01/05 09:14:33;;;;;;;36.60;6.28;;;;;;;10.56;100.00;102163.13;5220553;28;20382;-76
2023/01/05 09:17:03;;;;;;;47.28;6.88;;;;;;;10.58;100.00;102163.00;5208942;28;20040;-76
2023/01/05 09:19:34;;;;;;;54.03;7.18;;;;;;;10.60;100.00;102159.22;5208963;28;20047;-75
2023/01/05 09:22:04;;;;;;;40.05;5.78;;;;;;;10.61;100.00;102155.53;5210650;28;20014;-76
2023/01/05 09:24:35;;;;;;;48.95;7.20;;;;;;;10.66;100.00;102156.97;5218153;28;20064;-76
2023/01/05 09:27:06;;;;;;;51.50;15.35;;;;;;;10.69;100.00;102162.03;5203330;28;20028;-76
2023/01/05 09:29:37;;;;;;;48.35;7.93;;;;;;;10.65;100.00;102158.81;5211595;28;20033;-75
2023/01/05 09:32:09;;;;;;;41.25;5.93;;;;;;;10.59;100.00;102167.38;5222049;28;20013;-75
2023/01/05 09:34:39;;;;;;;45.55;7.40;;;;;;;10.54;100.00;102173.16;5212116;28;20032;-76
2023/01/05 09:37:10;;;;;;;38.50;7.20;;;;;;;10.51;100.00;102176.09;5208774;28;20485;-76
2023/01/05 09:39:40;;;;;;;37.17;6.40;;;;;;;10.49;100.00;102175.41;5206756;28;20025;-76
2023/01/05 09:42:16;;;;;;;43.60;7.65;;;;;;;10.45;100.00;102184.69;5206051;28;20063;-76
2023/01/05 09:44:51;;;;;;;46.05;6.80;;;;;;;10.43;100.00;102178.59;5216524;28;20029;-76
2023/01/05 09:47:40;;;;;;;39.20;6.43;;;;;;;10.40;100.00;102184.25;5224824;28;20017;-76
2023/01/05 09:50:24;;;;;;;45.55;7.13;;;;;;;10.42;100.00;102182.25;5207475;28;20029;-76
2023/01/05 09:52:58;;;;;;;51.67;8.35;;;;;;;10.46;100.00;102177.50;5216436;28;20071;-76
2023/01/05 09:55:31;;;;;;;57.97;6.85;;;;;;;10.51;100.00;102189.53;5203459;28;20454;-76
2023/01/05 09:58:09;;;;;;;50.30;6.75;;;;;;;10.53;100.00;102186.69;5218273;28;20032;-76
2023/01/05 10:00:43;;;;;;;50.92;6.72;;;;;;;10.49;100.00;102186.13;5214747;28;20048;-76
2023/01/05 10:03:19;;;;;;;43.63;8.15;;;;;;;10.58;100.00;102187.13;5220872;28;20036;-76
2023/01/05 10:05:51;;;;;;;50.78;6.93;;;;;;;10.57;100.00;102193.50;5225072;28;20440;-77
2023/01/05 10:08:43;;;;;;;40.80;5.80;;;;;;;10.57;100.00;102191.66;5223765;28;20065;-77
2023/01/05 10:14:18;;;;;;;55.22;6.90;;;;;;;10.50;100.00;102201.25;5203822;28;20498;-77
2023/01/05 10:16:49;;;;;;;44.83;6.38;;;;;;;10.51;100.00;102197.56;5211260;28;20482;-77
2023/01/05 10:19:20;;;;;;;45.95;6.47;;;;;;;10.52;100.00;102201.94;5218905;28;20024;-77
2023/01/05 10:22:12;;;;;;;37.35;6.07;;;;;;;10.59;100.00;102205.81;5215189;28;20079;-77
2023/01/05 10:24:58;;;;;;;41.55;5.80;;;;;;;10.59;100.00;102196.88;5223512;28;20033;-77
2023/01/05 10:27:35;;;;;;;39.55;8.70;;;;;;;10.60;100.00;102203.97;5223150;28;20075;-77
2023/01/05 10:30:22;;;;;;;44.33;7.65;;;;;;;10.54;100.00;102204.50;5214073;28;20463;-76
2023/01/05 10:33:02;;;;;;;42.95;12.07;;;;;;;10.48;100.00;102197.81;5217045;28;20022;-77
2023/01/05 10:36:14;;;;;;;41.22;7.35;;;;;;;10.46;100.00;102201.63;5203623;28;20387;-76
2023/01/05 10:39:02;;;;;;;51.22;12.38;;;;;;;10.47;100.00;102193.44;5203594;28;20048;-76
2023/01/05 10:41:46;;;;;;;44.85;8.27;;;;;;;10.50;100.00;102201.25;5228608;28;20033;-77
2023/01/05 10:44:34;;;;;;;48.97;7.50;;;;;;;10.63;100.00;102196.50;5216605;28;20029;-77
2023/01/05 10:47:10;;;;;;;51.03;12.60;;;;;;;10.69;100.00;102194.25;5221241;28;20029;-77
2023/01/05 10:49:42;;;;;;;;;;;;;;;10.71;100.00;102192.31;5212613;28;20026;-77
2023/01/05 10:52:15;;;;;;;52.92;7.65;;;;;;;10.70;100.00;102198.66;5216888;28;19913;-77
2023/01/05 10:55:00;;;;;;;39.80;8.57;;;;;;;10.70;100.00;102195.97;5203653;28;20040;-77
2023/01/05 10:57:35;;;;;;;41.67;6.47;;;;;;;10.75;100.00;102204.47;5203956;28;20025;-76
2023/01/05 11:00:10;;;;;;;50.85;8.40;;;;;;;10.94;100.00;102203.69;5215517;28;20072;-77
2023/01/05 11:02:49;;;;;;;42.97;6.00;;;;;;;11.09;100.00;102205.00;5216117;28;20055;-77
2023/01/05 11:05:25;;;;;;;47.95;7.75;;;;;;;11.20;100.00;102201.41;5211536;28;20055;-76
2023/01/05 11:08:00;;;;;;;43.92;7.30;;;;;;;11.35;100.00;102200.00;5224329;28;20063;-77
2023/01/05 11:10:35;;;;;;;36.72;6.03;;;;;;;11.39;100.00;102199.56;5214101;28;20021;-77
2023/01/05 11:13:16;;;;;;;33.13;5.95;;;;;;;11.38;100.00;102194.34;5224177;28;20021;-77
2023/01/05 11:16:11;;;;;;;38.47;6.85;;;;;;;11.41;100.00;102194.06;5221676;28;20116;-77
2023/01/05 11:18:48;;;;;;;42.40;7.20;;;;;;;11.44;100.00;102193.78;5207757;28;20029;-77
2023/01/05 11:21:22;;;;;;;47.80;9.00;;;;;;;11.57;100.00;102186.31;5220566;28;20021;-77
2023/01/05 11:23:58;;;;;;;42.08;8.50;;;;;;;11.64;100.00;102175.84;5219849;28;20489;-77
2023/01/05 11:26:34;;;;;;;49.65;7.20;;;;;;;11.72;100.00;102177.84;5227674;28;20028;-77
2023/01/05 11:29:07;;;;;;;46.28;7.13;;;;;;;11.91;100.00;102172.50;5210585;28;20414;-77
2023/01/05 11:32:00;;;;;;;50.70;9.35;;;;;;;12.08;100.00;102179.81;5206365;28;20036;-76
2023/01/05 11:34:47;;;;;;;50.72;8.98;;;;;;;12.34;100.00;102168.44;5205244;28;20092;-77
2023/01/05 11:37:23;;;;;;;35.60;6.13;;;;;;;12.42;100.00;102176.63;5206739;28;20389;-78
2023/01/05 11:40:00;;;;;;;;;;;;;;;12.48;100.00;102178.75;5216531;28;20400;-77
2023/01/05 11:42:41;;;;;;;37.13;5.85;;;;;;;12.34;100.00;102173.81;5226272;28;20428;-77
2023/01/05 11:45:21;;;;;;;38.17;6.13;;;;;;;12.16;100.00;102174.56;5227735;28;20021;-77
2023/01/05 11:47:57;;;;;;;33.95;5.82;;;;;;;11.97;100.00;102171.06;5229034;28;20215;-77
2023/01/05 11:50:30;;;;;;;;;;;;;;;11.90;100.00;102181.56;5219435;28;20104;-77
2023/01/05 11:53:01;;;;;;;37.97;6.68;;;;;;;11.88;100.00;102172.75;5219502;28;19913;-77
2023/01/05 11:55:38;;;;;;;40.85;7.35;;;;;;;11.85;100.00;102173.91;5227569;28;20052;-77
2023/01/05 11:58:11;;;;;;;45.10;6.80;;;;;;;11.91;100.00;102164.41;5214148;28;20421;-77
2023/01/05 12:01:17;;;;;;;41.72;6.97;;;;;;;11.95;100.00;102163.16;5226587;28;20029;-77
2023/01/05 12:03:56;;;;;;;48.25;6.68;;;;;;;12.02;100.00;102161.56;5203626;28;20031;-77
2023/01/05 12:06:42;;;;;;;49.22;9.75;;;;;;;12.03;100.00;102165.94;5206814;28;20532;-77
2023/01/05 12:09:29;;;;;;;39.63;6.05;;;;;;;12.08;100.00;102157.44;5225553;28;20017;-77
2023/01/05 12:12:03;;;;;;;37.85;7.47;;;;;;;12.12;100.00;102156.19;5204287;28;20088;-77